sensor_id;sensor_type;location;lat;lon;timestamp;P1;durP1;ratioP1;P2;durP2;ratioP2
26963;SDS011;14521;48.148;-1.656;2023-11-19T00:02:42;2.47;;;0.90;;
26963;SDS011;14521;48.148;-1.656;2023-11-19T00:06:05;1.35;;;0.93;;
26963;SDS011;14521;48.148;-1.656;2023-11-19T00:09:27;1.80;;;0.68;;
26963;SDS011;14521;48.148;-1.656;2023-11-19T00:12:50;2.20;;;0.80;;
26963;SDS011;14521;48.148;-1.656;2023-11-19T00:16:12;2.00;;;0.63;;
26963;SDS011;14521;48.148;-1.656;2023-11-19T00:19:34;3.55;;;0.70;;
26963;SDS011;14521;48.148;-1.656;2023-11-19T00:22:57;2.17;;;0.85;;
26963;SDS011;14521;48.148;-1.656;2023-11-19T00:26:19;1.30;;;1.20;;
26963;SDS011;14521;48.148;-1.656;2023-11-19T00:29:46;3.20;;;0.90;;
26963;SDS011;14521;48.148;-1.656;2023-11-19T00:33:09;3.30;;;1.00;;
26963;SDS011;14521;48.148;-1.656;2023-11-19T00:36:32;2.08;;;0.75;;
26963;SDS011;14521;48.148;-1.656;2023-11-19T00:39:54;2.60;;;0.90;;
26963;SDS011;14521;48.148;-1.656;2023-11-19T00:43:17;4.95;;;1.08;;
26963;SDS011;14521;48.148;-1.656;2023-11-19T00:46:43;1.40;;;0.70;;
26963;SDS011;14521;48.148;-1.656;2023-11-19T00:50:06;2.50;;;0.93;;
26963;SDS011;14521;48.148;-1.656;2023-11-19T00:53:33;3.13;;;1.00;;
26963;SDS011;14521;48.148;-1.656;2023-11-19T00:56:55;3.45;;;0.95;;
26963;SDS011;14521;48.148;-1.656;2023-11-19T01:00:18;2.70;;;0.75;;
26963;SDS011;14521;48.148;-1.656;2023-11-19T01:03:42;3.58;;;1.00;;
26963;SDS011;14521;48.148;-1.656;2023-11-19T01:07:04;1.48;;;0.73;;
26963;SDS011;14521;48.148;-1.656;2023-11-19T01:10:27;2.13;;;0.73;;
26963;SDS011;14521;48.148;-1.656;2023-11-19T01:13:50;2.53;;;0.70;;
26963;SDS011;14521;48.148;-1.656;2023-11-19T01:17:13;6.60;;;0.85;;
26963;SDS011;14521;48.148;-1.656;2023-11-19T01:20:36;2.70;;;0.80;;
26963;SDS011;14521;48.148;-1.656;2023-11-19T01:23:58;1.92;;;0.70;;
26963;SDS011;14521;48.148;-1.656;2023-11-19T01:27:25;1.98;;;0.80;;
26963;SDS011;14521;48.148;-1.656;2023-11-19T01:30:50;2.65;;;0.88;;
26963;SDS011;14521;48.148;-1.656;2023-11-19T01:34:12;2.92;;;0.88;;
26963;SDS011;14521;48.148;-1.656;2023-11-19T01:37:35;1.15;;;0.50;;
26963;SDS011;14521;48.148;-1.656;2023-11-19T01:40:58;2.70;;;0.80;;
26963;SDS011;14521;48.148;-1.656;2023-11-19T01:44:20;3.38;;;0.98;;
26963;SDS011;14521;48.148;-1.656;2023-11-19T01:47:42;4.00;;;0.90;;
26963;SDS011;14521;48.148;-1.656;2023-11-19T01:51:05;2.75;;;1.00;;
26963;SDS011;14521;48.148;-1.656;2023-11-19T01:54:28;2.92;;;0.77;;
26963;SDS011;14521;48.148;-1.656;2023-11-19T01:57:50;3.78;;;0.80;;
26963;SDS011;14521;48.148;-1.656;2023-11-19T02:01:17;5.20;;;1.02;;
26963;SDS011;14521;48.148;-1.656;2023-11-19T02:04:39;2.35;;;0.60;;
26963;SDS011;14521;48.148;-1.656;2023-11-19T02:08:03;2.25;;;0.88;;
26963;SDS011;14521;48.148;-1.656;2023-11-19T02:11:25;2.40;;;0.82;;
26963;SDS011;14521;48.148;-1.656;2023-11-19T02:14:51;3.78;;;0.90;;
26963;SDS011;14521;48.148;-1.656;2023-11-19T02:18:31;6.35;;;1.48;;
26963;SDS011;14521;48.148;-1.656;2023-11-19T02:21:54;3.25;;;0.90;;
26963;SDS011;14521;48.148;-1.656;2023-11-19T02:25:20;4.45;;;0.65;;
26963;SDS011;14521;48.148;-1.656;2023-11-19T02:28:50;6.90;;;1.17;;
26963;SDS011;14521;48.148;-1.656;2023-11-19T02:32:15;3.10;;;0.70;;
26963;SDS011;14521;48.148;-1.656;2023-11-19T02:35:38;7.15;;;0.80;;
26963;SDS011;14521;48.148;-1.656;2023-11-19T02:39:02;2.28;;;1.10;;
26963;SDS011;14521;48.148;-1.656;2023-11-19T02:42:25;4.25;;;1.40;;
26963;SDS011;14521;48.148;-1.656;2023-11-19T02:45:47;3.08;;;0.80;;
26963;SDS011;14521;48.148;-1.656;2023-11-19T02:49:10;4.55;;;1.40;;
26963;SDS011;14521;48.148;-1.656;2023-11-19T02:52:33;4.97;;;1.25;;
26963;SDS011;14521;48.148;-1.656;2023-11-19T02:55:59;6.43;;;1.27;;
26963;SDS011;14521;48.148;-1.656;2023-11-19T02:59:33;4.05;;;0.80;;
26963;SDS011;14521;48.148;-1.656;2023-11-19T03:03:01;3.90;;;0.90;;
26963;SDS011;14521;48.148;-1.656;2023-11-19T03:06:44;2.90;;;0.80;;
26963;SDS011;14521;48.148;-1.656;2023-11-19T03:10:06;3.80;;;0.85;;
26963;SDS011;14521;48.148;-1.656;2023-11-19T03:13:30;4.10;;;1.17;;
26963;SDS011;14521;48.148;-1.656;2023-11-19T03:16:53;5.78;;;1.42;;
26963;SDS011;14521;48.148;-1.656;2023-11-19T03:20:15;7.05;;;1.50;;
26963;SDS011;14521;48.148;-1.656;2023-11-19T03:23:38;6.00;;;1.02;;
26963;SDS011;14521;48.148;-1.656;2023-11-19T03:27:02;3.22;;;1.00;;
26963;SDS011;14521;48.148;-1.656;2023-11-19T03:30:25;5.47;;;0.93;;
26963;SDS011;14521;48.148;-1.656;2023-11-19T03:33:55;4.40;;;0.80;;
26963;SDS011;14521;48.148;-1.656;2023-11-19T03:37:20;4.53;;;1.00;;
26963;SDS011;14521;48.148;-1.656;2023-11-19T03:40:42;6.97;;;1.80;;
26963;SDS011;14521;48.148;-1.656;2023-11-19T03:44:05;3.83;;;1.30;;
26963;SDS011;14521;48.148;-1.656;2023-11-19T03:47:27;5.38;;;1.13;;
26963;SDS011;14521;48.148;-1.656;2023-11-19T03:50:51;3.13;;;1.10;;
26963;SDS011;14521;48.148;-1.656;2023-11-19T03:54:13;4.88;;;1.10;;
26963;SDS011;14521;48.148;-1.656;2023-11-19T03:57:36;7.10;;;1.05;;
26963;SDS011;14521;48.148;-1.656;2023-11-19T04:00:58;8.27;;;1.55;;
26963;SDS011;14521;48.148;-1.656;2023-11-19T04:04:21;5.60;;;1.08;;
26963;SDS011;14521;48.148;-1.656;2023-11-19T04:07:43;6.22;;;1.08;;
26963;SDS011;14521;48.148;-1.656;2023-11-19T04:11:06;8.05;;;1.50;;
26963;SDS011;14521;48.148;-1.656;2023-11-19T04:14:28;5.47;;;1.25;;
26963;SDS011;14521;48.148;-1.656;2023-11-19T04:17:50;6.57;;;1.50;;
26963;SDS011;14521;48.148;-1.656;2023-11-19T04:21:13;4.15;;;1.58;;
26963;SDS011;14521;48.148;-1.656;2023-11-19T04:24:35;4.60;;;1.17;;
26963;SDS011;14521;48.148;-1.656;2023-11-19T04:28:00;6.13;;;1.52;;
26963;SDS011;14521;48.148;-1.656;2023-11-19T04:31:22;6.18;;;1.30;;
26963;SDS011;14521;48.148;-1.656;2023-11-19T04:34:48;2.83;;;1.10;;
26963;SDS011;14521;48.148;-1.656;2023-11-19T04:38:10;6.25;;;1.40;;
26963;SDS011;14521;48.148;-1.656;2023-11-19T04:41:33;6.75;;;1.30;;
26963;SDS011;14521;48.148;-1.656;2023-11-19T04:44:55;5.70;;;1.00;;
26963;SDS011;14521;48.148;-1.656;2023-11-19T04:48:17;6.75;;;1.50;;
26963;SDS011;14521;48.148;-1.656;2023-11-19T04:51:40;7.38;;;1.52;;
26963;SDS011;14521;48.148;-1.656;2023-11-19T04:55:03;6.95;;;1.45;;
26963;SDS011;14521;48.148;-1.656;2023-11-19T04:58:28;3.38;;;1.27;;
26963;SDS011;14521;48.148;-1.656;2023-11-19T05:01:51;8.25;;;1.90;;
26963;SDS011;14521;48.148;-1.656;2023-11-19T05:05:15;4.82;;;1.60;;
26963;SDS011;14521;48.148;-1.656;2023-11-19T05:08:38;8.30;;;1.23;;
26963;SDS011;14521;48.148;-1.656;2023-11-19T05:12:00;11.68;;;1.40;;
26963;SDS011;14521;48.148;-1.656;2023-11-19T05:15:24;5.75;;;1.17;;
26963;SDS011;14521;48.148;-1.656;2023-11-19T05:18:46;6.35;;;1.27;;
26963;SDS011;14521;48.148;-1.656;2023-11-19T05:22:09;6.72;;;1.30;;
26963;SDS011;14521;48.148;-1.656;2023-11-19T05:25:31;4.78;;;1.35;;
26963;SDS011;14521;48.148;-1.656;2023-11-19T05:28:53;7.40;;;1.38;;
26963;SDS011;14521;48.148;-1.656;2023-11-19T05:32:16;11.27;;;2.15;;
26963;SDS011;14521;48.148;-1.656;2023-11-19T05:35:38;9.57;;;1.58;;
26963;SDS011;14521;48.148;-1.656;2023-11-19T05:39:00;5.20;;;1.30;;
26963;SDS011;14521;48.148;-1.656;2023-11-19T05:42:22;7.57;;;1.40;;
26963;SDS011;14521;48.148;-1.656;2023-11-19T05:45:45;9.05;;;1.73;;
26963;SDS011;14521;48.148;-1.656;2023-11-19T05:49:08;10.23;;;1.38;;
26963;SDS011;14521;48.148;-1.656;2023-11-19T05:52:31;4.15;;;1.40;;
26963;SDS011;14521;48.148;-1.656;2023-11-19T05:55:55;9.77;;;1.53;;
26963;SDS011;14521;48.148;-1.656;2023-11-19T05:59:18;9.70;;;1.75;;
26963;SDS011;14521;48.148;-1.656;2023-11-19T06:02:40;7.50;;;1.55;;
26963;SDS011;14521;48.148;-1.656;2023-11-19T06:06:03;6.07;;;1.35;;
26963;SDS011;14521;48.148;-1.656;2023-11-19T06:09:25;13.13;;;1.95;;
26963;SDS011;14521;48.148;-1.656;2023-11-19T06:12:47;6.10;;;1.58;;
26963;SDS011;14521;48.148;-1.656;2023-11-19T06:16:10;14.05;;;1.90;;
26963;SDS011;14521;48.148;-1.656;2023-11-19T06:19:32;11.77;;;1.52;;
26963;SDS011;14521;48.148;-1.656;2023-11-19T06:22:56;6.32;;;1.90;;
26963;SDS011;14521;48.148;-1.656;2023-11-19T06:26:18;5.85;;;1.65;;
26963;SDS011;14521;48.148;-1.656;2023-11-19T06:29:40;7.95;;;1.77;;
26963;SDS011;14521;48.148;-1.656;2023-11-19T06:33:03;10.02;;;1.73;;
26963;SDS011;14521;48.148;-1.656;2023-11-19T06:36:25;9.52;;;1.75;;
26963;SDS011;14521;48.148;-1.656;2023-11-19T06:39:48;7.88;;;1.55;;
26963;SDS011;14521;48.148;-1.656;2023-11-19T06:43:10;6.60;;;1.75;;
26963;SDS011;14521;48.148;-1.656;2023-11-19T06:46:33;8.18;;;1.80;;
26963;SDS011;14521;48.148;-1.656;2023-11-19T06:49:55;10.90;;;2.22;;
26963;SDS011;14521;48.148;-1.656;2023-11-19T06:53:17;7.95;;;1.58;;
26963;SDS011;14521;48.148;-1.656;2023-11-19T06:56:40;9.70;;;1.60;;
26963;SDS011;14521;48.148;-1.656;2023-11-19T07:00:03;5.25;;;1.67;;
26963;SDS011;14521;48.148;-1.656;2023-11-19T07:03:27;13.03;;;2.70;;
26963;SDS011;14521;48.148;-1.656;2023-11-19T07:06:50;6.15;;;1.45;;
26963;SDS011;14521;48.148;-1.656;2023-11-19T07:10:14;11.27;;;2.65;;
26963;SDS011;14521;48.148;-1.656;2023-11-19T07:13:37;10.68;;;2.20;;
26963;SDS011;14521;48.148;-1.656;2023-11-19T07:16:59;10.70;;;2.17;;
26963;SDS011;14521;48.148;-1.656;2023-11-19T07:20:22;6.82;;;1.73;;
26963;SDS011;14521;48.148;-1.656;2023-11-19T07:23:44;10.10;;;1.95;;
26963;SDS011;14521;48.148;-1.656;2023-11-19T07:27:07;6.15;;;1.60;;
26963;SDS011;14521;48.148;-1.656;2023-11-19T07:30:30;7.57;;;1.80;;
26963;SDS011;14521;48.148;-1.656;2023-11-19T07:33:53;13.73;;;2.00;;
26963;SDS011;14521;48.148;-1.656;2023-11-19T07:37:15;8.55;;;1.50;;
26963;SDS011;14521;48.148;-1.656;2023-11-19T07:40:38;11.88;;;1.90;;
26963;SDS011;14521;48.148;-1.656;2023-11-19T07:44:01;5.75;;;1.65;;
26963;SDS011;14521;48.148;-1.656;2023-11-19T07:47:23;9.80;;;1.58;;
26963;SDS011;14521;48.148;-1.656;2023-11-19T07:50:45;9.65;;;1.50;;
26963;SDS011;14521;48.148;-1.656;2023-11-19T07:54:08;8.32;;;2.10;;
26963;SDS011;14521;48.148;-1.656;2023-11-19T07:57:30;7.78;;;2.10;;
26963;SDS011;14521;48.148;-1.656;2023-11-19T08:00:53;14.80;;;1.83;;
26963;SDS011;14521;48.148;-1.656;2023-11-19T08:04:15;6.50;;;1.77;;
26963;SDS011;14521;48.148;-1.656;2023-11-19T08:07:37;4.75;;;1.48;;
26963;SDS011;14521;48.148;-1.656;2023-11-19T08:11:00;7.60;;;1.27;;
26963;SDS011;14521;48.148;-1.656;2023-11-19T08:14:22;9.73;;;2.20;;
26963;SDS011;14521;48.148;-1.656;2023-11-19T08:17:46;16.33;;;2.28;;
26963;SDS011;14521;48.148;-1.656;2023-11-19T08:21:08;8.93;;;1.88;;
26963;SDS011;14521;48.148;-1.656;2023-11-19T08:24:31;6.93;;;1.63;;
26963;SDS011;14521;48.148;-1.656;2023-11-19T08:27:53;9.98;;;1.63;;
26963;SDS011;14521;48.148;-1.656;2023-11-19T08:31:16;9.82;;;2.33;;
26963;SDS011;14521;48.148;-1.656;2023-11-19T08:34:38;8.23;;;1.63;;
26963;SDS011;14521;48.148;-1.656;2023-11-19T08:38:01;9.32;;;1.60;;
26963;SDS011;14521;48.148;-1.656;2023-11-19T08:41:24;5.57;;;1.40;;
26963;SDS011;14521;48.148;-1.656;2023-11-19T08:44:50;4.10;;;1.20;;
26963;SDS011;14521;48.148;-1.656;2023-11-19T08:48:15;8.70;;;1.73;;
26963;SDS011;14521;48.148;-1.656;2023-11-19T08:51:38;7.03;;;1.55;;
26963;SDS011;14521;48.148;-1.656;2023-11-19T08:55:00;6.93;;;1.58;;
26963;SDS011;14521;48.148;-1.656;2023-11-19T08:58:22;7.72;;;1.60;;
26963;SDS011;14521;48.148;-1.656;2023-11-19T09:01:44;9.85;;;1.98;;
26963;SDS011;14521;48.148;-1.656;2023-11-19T09:05:07;6.07;;;1.60;;
26963;SDS011;14521;48.148;-1.656;2023-11-19T09:08:30;6.88;;;1.50;;
26963;SDS011;14521;48.148;-1.656;2023-11-19T09:11:52;7.22;;;1.60;;
26963;SDS011;14521;48.148;-1.656;2023-11-19T09:15:14;4.28;;;1.60;;
26963;SDS011;14521;48.148;-1.656;2023-11-19T09:18:37;8.10;;;1.58;;
26963;SDS011;14521;48.148;-1.656;2023-11-19T09:21:59;7.72;;;1.60;;
26963;SDS011;14521;48.148;-1.656;2023-11-19T09:25:21;8.18;;;1.77;;
26963;SDS011;14521;48.148;-1.656;2023-11-19T09:28:44;12.50;;;1.98;;
26963;SDS011;14521;48.148;-1.656;2023-11-19T09:31:55;9.15;;;1.80;;
26963;SDS011;14521;48.148;-1.656;2023-11-19T09:35:17;7.90;;;1.85;;
26963;SDS011;14521;48.148;-1.656;2023-11-19T09:38:43;8.80;;;1.60;;
26963;SDS011;14521;48.148;-1.656;2023-11-19T09:42:05;8.68;;;2.03;;
26963;SDS011;14521;48.148;-1.656;2023-11-19T09:45:27;7.93;;;1.52;;
26963;SDS011;14521;48.148;-1.656;2023-11-19T09:48:52;8.30;;;1.95;;
26963;SDS011;14521;48.148;-1.656;2023-11-19T09:52:18;9.73;;;1.60;;
26963;SDS011;14521;48.148;-1.656;2023-11-19T09:55:40;8.43;;;1.50;;
26963;SDS011;14521;48.148;-1.656;2023-11-19T09:59:03;6.40;;;1.75;;
26963;SDS011;14521;48.148;-1.656;2023-11-19T10:02:26;6.97;;;1.30;;
26963;SDS011;14521;48.148;-1.656;2023-11-19T10:05:56;9.07;;;1.90;;
26963;SDS011;14521;48.148;-1.656;2023-11-19T10:09:19;9.90;;;1.90;;
26963;SDS011;14521;48.148;-1.656;2023-11-19T10:12:42;6.45;;;1.55;;
26963;SDS011;14521;48.148;-1.656;2023-11-19T10:16:13;12.88;;;1.67;;
26963;SDS011;14521;48.148;-1.656;2023-11-19T10:19:36;9.52;;;2.10;;
26963;SDS011;14521;48.148;-1.656;2023-11-19T10:23:03;13.13;;;1.85;;
26963;SDS011;14521;48.148;-1.656;2023-11-19T10:26:25;10.13;;;1.60;;
26963;SDS011;14521;48.148;-1.656;2023-11-19T10:29:48;7.38;;;1.52;;
26963;SDS011;14521;48.148;-1.656;2023-11-19T10:33:11;10.00;;;1.98;;
26963;SDS011;14521;48.148;-1.656;2023-11-19T10:36:42;12.45;;;2.22;;
26963;SDS011;14521;48.148;-1.656;2023-11-19T10:40:05;8.57;;;2.00;;
26963;SDS011;14521;48.148;-1.656;2023-11-19T10:43:29;9.85;;;2.03;;
26963;SDS011;14521;48.148;-1.656;2023-11-19T10:46:51;8.40;;;2.03;;
26963;SDS011;14521;48.148;-1.656;2023-11-19T10:50:15;10.23;;;1.50;;
26963;SDS011;14521;48.148;-1.656;2023-11-19T10:53:38;12.80;;;2.65;;
26963;SDS011;14521;48.148;-1.656;2023-11-19T10:57:01;7.45;;;1.77;;
26963;SDS011;14521;48.148;-1.656;2023-11-19T11:00:04;11.10;;;2.40;;
26963;SDS011;14521;48.148;-1.656;2023-11-19T11:03:17;7.93;;;1.73;;
26963;SDS011;14521;48.148;-1.656;2023-11-19T11:06:21;5.25;;;1.65;;
26963;SDS011;14521;48.148;-1.656;2023-11-19T11:09:26;10.73;;;1.65;;
26963;SDS011;14521;48.148;-1.656;2023-11-19T11:12:29;9.35;;;2.28;;
26963;SDS011;14521;48.148;-1.656;2023-11-19T11:15:38;11.52;;;1.85;;
26963;SDS011;14521;48.148;-1.656;2023-11-19T11:18:41;14.15;;;2.15;;
26963;SDS011;14521;48.148;-1.656;2023-11-19T11:21:43;9.38;;;2.10;;
26963;SDS011;14521;48.148;-1.656;2023-11-19T11:28:02;7.43;;;1.83;;
26963;SDS011;14521;48.148;-1.656;2023-11-19T11:34:47;11.30;;;2.38;;
26963;SDS011;14521;48.148;-1.656;2023-11-19T11:37:55;4.38;;;1.83;;
26963;SDS011;14521;48.148;-1.656;2023-11-19T11:41:23;12.38;;;2.20;;
26963;SDS011;14521;48.148;-1.656;2023-11-19T11:48:06;9.50;;;2.33;;
26963;SDS011;14521;48.148;-1.656;2023-11-19T11:51:17;10.38;;;2.10;;
26963;SDS011;14521;48.148;-1.656;2023-11-19T11:57:21;11.55;;;1.67;;
26963;SDS011;14521;48.148;-1.656;2023-11-19T12:00:43;6.80;;;1.63;;
26963;SDS011;14521;48.148;-1.656;2023-11-19T12:04:06;14.35;;;2.53;;
26963;SDS011;14521;48.148;-1.656;2023-11-19T12:07:28;11.40;;;2.85;;
26963;SDS011;14521;48.148;-1.656;2023-11-19T12:10:51;17.30;;;4.82;;
26963;SDS011;14521;48.148;-1.656;2023-11-19T12:14:14;96.47;;;24.42;;
26963;SDS011;14521;48.148;-1.656;2023-11-19T12:20:53;70.85;;;20.58;;
26963;SDS011;14521;48.148;-1.656;2023-11-19T12:23:56;64.68;;;17.38;;
26963;SDS011;14521;48.148;-1.656;2023-11-19T12:27:04;84.70;;;25.85;;
26963;SDS011;14521;48.148;-1.656;2023-11-19T12:30:06;115.00;;;30.90;;
26963;SDS011;14521;48.148;-1.656;2023-11-19T12:33:10;94.00;;;27.88;;
26963;SDS011;14521;48.148;-1.656;2023-11-19T12:36:13;116.70;;;32.37;;
26963;SDS011;14521;48.148;-1.656;2023-11-19T12:39:16;93.78;;;28.80;;
26963;SDS011;14521;48.148;-1.656;2023-11-19T12:42:18;96.88;;;26.90;;
26963;SDS011;14521;48.148;-1.656;2023-11-19T12:45:20;83.80;;;25.17;;
26963;SDS011;14521;48.148;-1.656;2023-11-19T12:48:25;88.75;;;24.98;;
26963;SDS011;14521;48.148;-1.656;2023-11-19T12:51:30;70.35;;;23.00;;
26963;SDS011;14521;48.148;-1.656;2023-11-19T12:54:34;70.75;;;22.30;;
26963;SDS011;14521;48.148;-1.656;2023-11-19T13:00:41;70.88;;;21.13;;
26963;SDS011;14521;48.148;-1.656;2023-11-19T13:03:43;70.93;;;20.17;;
26963;SDS011;14521;48.148;-1.656;2023-11-19T13:06:46;61.83;;;18.75;;
26963;SDS011;14521;48.148;-1.656;2023-11-19T13:10:06;60.65;;;18.70;;
26963;SDS011;14521;48.148;-1.656;2023-11-19T13:13:08;65.40;;;17.60;;
26963;SDS011;14521;48.148;-1.656;2023-11-19T13:16:10;32.75;;;8.98;;
26963;SDS011;14521;48.148;-1.656;2023-11-19T13:19:16;36.10;;;7.38;;
26963;SDS011;14521;48.148;-1.656;2023-11-19T13:22:20;35.80;;;9.02;;
26963;SDS011;14521;48.148;-1.656;2023-11-19T13:25:22;30.25;;;8.57;;
26963;SDS011;14521;48.148;-1.656;2023-11-19T13:28:30;24.52;;;7.80;;
26963;SDS011;14521;48.148;-1.656;2023-11-19T13:31:32;35.35;;;8.73;;
26963;SDS011;14521;48.148;-1.656;2023-11-19T13:34:35;28.20;;;8.50;;
26963;SDS011;14521;48.148;-1.656;2023-11-19T13:37:37;34.30;;;7.18;;
26963;SDS011;14521;48.148;-1.656;2023-11-19T13:40:39;28.02;;;7.63;;
26963;SDS011;14521;48.148;-1.656;2023-11-19T13:43:41;29.00;;;6.53;;
26963;SDS011;14521;48.148;-1.656;2023-11-19T13:46:44;21.90;;;7.07;;
26963;SDS011;14521;48.148;-1.656;2023-11-19T13:49:47;24.93;;;7.07;;
26963;SDS011;14521;48.148;-1.656;2023-11-19T13:52:49;22.85;;;6.15;;
26963;SDS011;14521;48.148;-1.656;2023-11-19T13:55:52;37.33;;;6.32;;
26963;SDS011;14521;48.148;-1.656;2023-11-19T13:59:13;23.33;;;5.80;;
26963;SDS011;14521;48.148;-1.656;2023-11-19T14:02:35;18.48;;;5.45;;
26963;SDS011;14521;48.148;-1.656;2023-11-19T14:05:58;18.60;;;5.85;;
26963;SDS011;14521;48.148;-1.656;2023-11-19T14:09:20;16.08;;;4.80;;
26963;SDS011;14521;48.148;-1.656;2023-11-19T14:12:43;17.88;;;5.35;;
26963;SDS011;14521;48.148;-1.656;2023-11-19T14:16:05;21.65;;;5.28;;
26963;SDS011;14521;48.148;-1.656;2023-11-19T14:19:31;21.63;;;5.78;;
26963;SDS011;14521;48.148;-1.656;2023-11-19T14:22:53;14.75;;;4.32;;
26963;SDS011;14521;48.148;-1.656;2023-11-19T14:26:15;18.48;;;4.72;;
26963;SDS011;14521;48.148;-1.656;2023-11-19T14:29:37;20.15;;;5.50;;
26963;SDS011;14521;48.148;-1.656;2023-11-19T14:33:01;13.02;;;3.75;;
26963;SDS011;14521;48.148;-1.656;2023-11-19T14:36:25;18.52;;;4.05;;
26963;SDS011;14521;48.148;-1.656;2023-11-19T14:39:48;21.67;;;4.65;;
26963;SDS011;14521;48.148;-1.656;2023-11-19T14:43:12;16.50;;;4.27;;
26963;SDS011;14521;48.148;-1.656;2023-11-19T14:46:35;17.75;;;3.63;;
26963;SDS011;14521;48.148;-1.656;2023-11-19T14:49:58;14.05;;;3.60;;
26963;SDS011;14521;48.148;-1.656;2023-11-19T14:53:20;10.15;;;3.47;;
26963;SDS011;14521;48.148;-1.656;2023-11-19T14:56:42;12.23;;;3.72;;
26963;SDS011;14521;48.148;-1.656;2023-11-19T15:00:05;12.80;;;3.92;;
26963;SDS011;14521;48.148;-1.656;2023-11-19T15:03:34;12.13;;;3.03;;
26963;SDS011;14521;48.148;-1.656;2023-11-19T15:07:15;12.88;;;3.47;;
26963;SDS011;14521;48.148;-1.656;2023-11-19T15:10:37;11.93;;;3.65;;
26963;SDS011;14521;48.148;-1.656;2023-11-19T15:13:59;11.18;;;3.30;;
26963;SDS011;14521;48.148;-1.656;2023-11-19T15:17:22;11.65;;;3.33;;
26963;SDS011;14521;48.148;-1.656;2023-11-19T15:20:46;13.52;;;2.80;;
26963;SDS011;14521;48.148;-1.656;2023-11-19T15:24:09;14.88;;;3.22;;
26963;SDS011;14521;48.148;-1.656;2023-11-19T15:27:32;9.75;;;2.53;;
26963;SDS011;14521;48.148;-1.656;2023-11-19T15:30:55;11.32;;;2.83;;
26963;SDS011;14521;48.148;-1.656;2023-11-19T15:34:17;10.32;;;2.78;;
26963;SDS011;14521;48.148;-1.656;2023-11-19T15:37:40;9.18;;;2.90;;
26963;SDS011;14521;48.148;-1.656;2023-11-19T15:41:05;6.30;;;2.55;;
26963;SDS011;14521;48.148;-1.656;2023-11-19T15:44:29;8.88;;;2.78;;
26963;SDS011;14521;48.148;-1.656;2023-11-19T15:47:51;8.85;;;2.47;;
26963;SDS011;14521;48.148;-1.656;2023-11-19T15:51:14;12.25;;;3.33;;
26963;SDS011;14521;48.148;-1.656;2023-11-19T15:54:36;11.45;;;2.78;;
26963;SDS011;14521;48.148;-1.656;2023-11-19T15:57:58;8.05;;;2.20;;
26963;SDS011;14521;48.148;-1.656;2023-11-19T16:01:21;11.93;;;3.22;;
26963;SDS011;14521;48.148;-1.656;2023-11-19T16:04:43;12.55;;;2.50;;
26963;SDS011;14521;48.148;-1.656;2023-11-19T16:08:09;11.75;;;2.92;;
26963;SDS011;14521;48.148;-1.656;2023-11-19T16:11:32;8.30;;;2.30;;
26963;SDS011;14521;48.148;-1.656;2023-11-19T16:15:12;12.65;;;2.22;;
26963;SDS011;14521;48.148;-1.656;2023-11-19T16:18:36;8.05;;;2.40;;
26963;SDS011;14521;48.148;-1.656;2023-11-19T16:21:58;8.05;;;1.75;;
26963;SDS011;14521;48.148;-1.656;2023-11-19T16:25:31;12.50;;;2.13;;
26963;SDS011;14521;48.148;-1.656;2023-11-19T16:28:53;8.27;;;2.22;;
26963;SDS011;14521;48.148;-1.656;2023-11-19T16:32:16;5.40;;;1.77;;
26963;SDS011;14521;48.148;-1.656;2023-11-19T16:35:38;7.50;;;2.00;;
26963;SDS011;14521;48.148;-1.656;2023-11-19T16:39:00;8.85;;;2.45;;
26963;SDS011;14521;48.148;-1.656;2023-11-19T16:42:26;9.25;;;2.17;;
26963;SDS011;14521;48.148;-1.656;2023-11-19T16:45:48;11.82;;;2.03;;
26963;SDS011;14521;48.148;-1.656;2023-11-19T16:49:10;11.30;;;1.80;;
26963;SDS011;14521;48.148;-1.656;2023-11-19T16:52:32;9.02;;;2.17;;
26963;SDS011;14521;48.148;-1.656;2023-11-19T16:55:55;5.85;;;2.58;;
26963;SDS011;14521;48.148;-1.656;2023-11-19T16:59:17;6.72;;;1.63;;
26963;SDS011;14521;48.148;-1.656;2023-11-19T17:02:39;9.52;;;2.25;;
26963;SDS011;14521;48.148;-1.656;2023-11-19T17:06:07;10.70;;;2.03;;
26963;SDS011;14521;48.148;-1.656;2023-11-19T17:09:30;10.48;;;2.33;;
26963;SDS011;14521;48.148;-1.656;2023-11-19T17:12:53;6.93;;;2.05;;
26963;SDS011;14521;48.148;-1.656;2023-11-19T17:16:15;8.35;;;2.38;;
26963;SDS011;14521;48.148;-1.656;2023-11-19T17:19:38;9.27;;;1.95;;
26963;SDS011;14521;48.148;-1.656;2023-11-19T17:23:03;8.50;;;1.88;;
26963;SDS011;14521;48.148;-1.656;2023-11-19T17:26:45;8.93;;;2.00;;
26963;SDS011;14521;48.148;-1.656;2023-11-19T17:30:07;3.67;;;1.40;;
26963;SDS011;14521;48.148;-1.656;2023-11-19T17:33:31;6.85;;;1.48;;
26963;SDS011;14521;48.148;-1.656;2023-11-19T17:36:53;8.68;;;1.60;;
26963;SDS011;14521;48.148;-1.656;2023-11-19T17:40:15;6.65;;;1.70;;
26963;SDS011;14521;48.148;-1.656;2023-11-19T17:43:38;9.88;;;1.77;;
26963;SDS011;14521;48.148;-1.656;2023-11-19T17:47:01;8.40;;;1.83;;
26963;SDS011;14521;48.148;-1.656;2023-11-19T17:50:23;5.90;;;1.70;;
26963;SDS011;14521;48.148;-1.656;2023-11-19T17:53:47;16.65;;;2.08;;
26963;SDS011;14521;48.148;-1.656;2023-11-19T17:57:10;7.03;;;1.77;;
26963;SDS011;14521;48.148;-1.656;2023-11-19T18:00:34;8.27;;;1.60;;
26963;SDS011;14521;48.148;-1.656;2023-11-19T18:03:56;4.38;;;1.92;;
26963;SDS011;14521;48.148;-1.656;2023-11-19T18:07:19;7.15;;;1.52;;
26963;SDS011;14521;48.148;-1.656;2023-11-19T18:10:41;5.70;;;1.83;;
26963;SDS011;14521;48.148;-1.656;2023-11-19T18:14:04;5.88;;;1.52;;
26963;SDS011;14521;48.148;-1.656;2023-11-19T18:17:26;5.97;;;2.13;;
26963;SDS011;14521;48.148;-1.656;2023-11-19T18:20:49;7.43;;;1.80;;
26963;SDS011;14521;48.148;-1.656;2023-11-19T18:24:11;11.30;;;2.20;;
26963;SDS011;14521;48.148;-1.656;2023-11-19T18:27:33;6.95;;;1.70;;
26963;SDS011;14521;48.148;-1.656;2023-11-19T18:30:56;3.70;;;1.45;;
26963;SDS011;14521;48.148;-1.656;2023-11-19T18:34:37;5.68;;;1.67;;
26963;SDS011;14521;48.148;-1.656;2023-11-19T18:38:01;5.10;;;1.60;;
26963;SDS011;14521;48.148;-1.656;2023-11-19T18:41:25;7.30;;;2.10;;
26963;SDS011;14521;48.148;-1.656;2023-11-19T18:44:47;6.93;;;2.53;;
26963;SDS011;14521;48.148;-1.656;2023-11-19T18:48:09;17.63;;;4.00;;
26963;SDS011;14521;48.148;-1.656;2023-11-19T18:51:32;32.25;;;6.30;;
26963;SDS011;14521;48.148;-1.656;2023-11-19T18:55:13;38.55;;;8.45;;
26963;SDS011;14521;48.148;-1.656;2023-11-19T18:58:35;40.20;;;9.82;;
26963;SDS011;14521;48.148;-1.656;2023-11-19T19:01:57;34.88;;;9.15;;
26963;SDS011;14521;48.148;-1.656;2023-11-19T19:05:20;40.67;;;8.88;;
26963;SDS011;14521;48.148;-1.656;2023-11-19T19:08:43;26.38;;;6.97;;
26963;SDS011;14521;48.148;-1.656;2023-11-19T19:12:07;19.60;;;6.70;;
26963;SDS011;14521;48.148;-1.656;2023-11-19T19:15:30;16.25;;;5.90;;
26963;SDS011;14521;48.148;-1.656;2023-11-19T19:18:52;20.10;;;5.93;;
26963;SDS011;14521;48.148;-1.656;2023-11-19T19:22:16;20.98;;;5.72;;
26963;SDS011;14521;48.148;-1.656;2023-11-19T19:25:39;18.25;;;5.00;;
26963;SDS011;14521;48.148;-1.656;2023-11-19T19:29:01;12.15;;;5.00;;
26963;SDS011;14521;48.148;-1.656;2023-11-19T19:32:23;10.85;;;4.65;;
26963;SDS011;14521;48.148;-1.656;2023-11-19T19:35:46;15.15;;;4.95;;
26963;SDS011;14521;48.148;-1.656;2023-11-19T19:39:08;13.63;;;4.80;;
26963;SDS011;14521;48.148;-1.656;2023-11-19T19:42:35;6.85;;;2.50;;
26963;SDS011;14521;48.148;-1.656;2023-11-19T19:45:57;13.57;;;3.97;;
26963;SDS011;14521;48.148;-1.656;2023-11-19T19:49:20;14.05;;;4.05;;
26963;SDS011;14521;48.148;-1.656;2023-11-19T19:52:42;11.98;;;4.28;;
26963;SDS011;14521;48.148;-1.656;2023-11-19T19:56:06;9.13;;;3.80;;
26963;SDS011;14521;48.148;-1.656;2023-11-19T19:59:30;10.65;;;4.00;;
26963;SDS011;14521;48.148;-1.656;2023-11-19T20:02:55;11.98;;;4.00;;
26963;SDS011;14521;48.148;-1.656;2023-11-19T20:06:18;11.48;;;3.58;;